sensor_id;sensor_type;location;lat;lon;timestamp;P1;durP1;ratioP1;P2;durP2;ratioP2
57627;SDS011;43451;49.060;10.616;2023-07-31T00:00:34;6.05;;;1.70;;
57627;SDS011;43451;49.060;10.616;2023-07-31T00:03:02;6.70;;;1.80;;
57627;SDS011;43451;49.060;10.616;2023-07-31T00:05:28;4.97;;;1.70;;
57627;SDS011;43451;49.060;10.616;2023-07-31T00:08:02;4.45;;;1.60;;
57627;SDS011;43451;49.060;10.616;2023-07-31T00:10:42;3.80;;;1.63;;
57627;SDS011;43451;49.060;10.616;2023-07-31T00:15:37;4.05;;;1.90;;
57627;SDS011;43451;49.060;10.616;2023-07-31T00:18:02;4.43;;;1.58;;
57627;SDS011;43451;49.060;10.616;2023-07-31T00:20:29;5.20;;;1.88;;
57627;SDS011;43451;49.060;10.616;2023-07-31T00:23:09;4.03;;;1.52;;
57627;SDS011;43451;49.060;10.616;2023-07-31T00:25:43;3.63;;;1.70;;
57627;SDS011;43451;49.060;10.616;2023-07-31T00:39:00;3.40;;;1.70;;
57627;SDS011;43451;49.060;10.616;2023-07-31T00:47:08;3.40;;;1.50;;
57627;SDS011;43451;49.060;10.616;2023-07-31T00:52:55;4.68;;;1.60;;
57627;SDS011;43451;49.060;10.616;2023-07-31T00:55:38;3.95;;;1.60;;
57627;SDS011;43451;49.060;10.616;2023-07-31T00:58:04;6.38;;;1.65;;
57627;SDS011;43451;49.060;10.616;2023-07-31T01:00:31;3.20;;;1.80;;
57627;SDS011;43451;49.060;10.616;2023-07-31T01:02:59;6.68;;;1.80;;
57627;SDS011;43451;49.060;10.616;2023-07-31T01:12:13;3.67;;;1.73;;
57627;SDS011;43451;49.060;10.616;2023-07-31T01:14:31;2.92;;;1.70;;
57627;SDS011;43451;49.060;10.616;2023-07-31T01:16:57;4.50;;;1.88;;
57627;SDS011;43451;49.060;10.616;2023-07-31T01:19:23;2.97;;;1.83;;
57627;SDS011;43451;49.060;10.616;2023-07-31T01:38:49;6.53;;;1.80;;
57627;SDS011;43451;49.060;10.616;2023-07-31T01:41:23;4.40;;;1.90;;
57627;SDS011;43451;49.060;10.616;2023-07-31T01:51:55;4.07;;;1.80;;
57627;SDS011;43451;49.060;10.616;2023-07-31T01:54:20;3.47;;;1.70;;
57627;SDS011;43451;49.060;10.616;2023-07-31T01:56:46;5.20;;;1.85;;
57627;SDS011;43451;49.060;10.616;2023-07-31T02:01:39;6.75;;;2.00;;
57627;SDS011;43451;49.060;10.616;2023-07-31T02:04:04;4.32;;;1.90;;
57627;SDS011;43451;49.060;10.616;2023-07-31T02:06:30;3.30;;;1.85;;
57627;SDS011;43451;49.060;10.616;2023-07-31T02:08:55;7.55;;;1.90;;
57627;SDS011;43451;49.060;10.616;2023-07-31T02:11:21;3.72;;;2.00;;
57627;SDS011;43451;49.060;10.616;2023-07-31T02:13:46;4.75;;;1.90;;
57627;SDS011;43451;49.060;10.616;2023-07-31T02:16:12;4.53;;;2.00;;
57627;SDS011;43451;49.060;10.616;2023-07-31T02:18:37;4.45;;;1.60;;
57627;SDS011;43451;49.060;10.616;2023-07-31T02:21:03;3.92;;;1.60;;
57627;SDS011;43451;49.060;10.616;2023-07-31T02:23:28;4.20;;;1.58;;
57627;SDS011;43451;49.060;10.616;2023-07-31T02:25:54;6.32;;;1.73;;
57627;SDS011;43451;49.060;10.616;2023-07-31T02:28:19;5.40;;;1.80;;
57627;SDS011;43451;49.060;10.616;2023-07-31T02:30:45;3.90;;;1.65;;
57627;SDS011;43451;49.060;10.616;2023-07-31T02:33:11;3.50;;;1.70;;
57627;SDS011;43451;49.060;10.616;2023-07-31T02:35:36;3.70;;;1.80;;
57627;SDS011;43451;49.060;10.616;2023-07-31T02:38:02;3.38;;;1.80;;
57627;SDS011;43451;49.060;10.616;2023-07-31T02:40:27;5.05;;;1.98;;
57627;SDS011;43451;49.060;10.616;2023-07-31T02:42:53;5.40;;;1.95;;
57627;SDS011;43451;49.060;10.616;2023-07-31T02:45:18;5.63;;;1.83;;
57627;SDS011;43451;49.060;10.616;2023-07-31T02:47:44;5.88;;;1.90;;
57627;SDS011;43451;49.060;10.616;2023-07-31T02:50:10;4.40;;;2.10;;
57627;SDS011;43451;49.060;10.616;2023-07-31T02:52:35;5.13;;;2.20;;
57627;SDS011;43451;49.060;10.616;2023-07-31T02:55:01;2.30;;;1.60;;
57627;SDS011;43451;49.060;10.616;2023-07-31T02:57:26;3.42;;;1.70;;
57627;SDS011;43451;49.060;10.616;2023-07-31T02:59:52;3.70;;;1.73;;
57627;SDS011;43451;49.060;10.616;2023-07-31T03:02:17;5.18;;;1.98;;
57627;SDS011;43451;49.060;10.616;2023-07-31T03:04:43;5.85;;;1.70;;
57627;SDS011;43451;49.060;10.616;2023-07-31T03:07:08;3.83;;;1.90;;
57627;SDS011;43451;49.060;10.616;2023-07-31T03:09:34;4.93;;;1.77;;
57627;SDS011;43451;49.060;10.616;2023-07-31T03:11:59;5.13;;;1.63;;
57627;SDS011;43451;49.060;10.616;2023-07-31T03:14:25;4.07;;;1.67;;
57627;SDS011;43451;49.060;10.616;2023-07-31T03:16:51;3.88;;;1.77;;
57627;SDS011;43451;49.060;10.616;2023-07-31T03:19:17;3.95;;;1.70;;
57627;SDS011;43451;49.060;10.616;2023-07-31T03:21:43;3.58;;;1.60;;
57627;SDS011;43451;49.060;10.616;2023-07-31T03:24:08;4.47;;;1.60;;
57627;SDS011;43451;49.060;10.616;2023-07-31T03:26:34;4.47;;;1.65;;
57627;SDS011;43451;49.060;10.616;2023-07-31T03:29:00;4.28;;;1.60;;
57627;SDS011;43451;49.060;10.616;2023-07-31T03:31:25;3.67;;;1.60;;
57627;SDS011;43451;49.060;10.616;2023-07-31T03:33:51;4.30;;;1.83;;
57627;SDS011;43451;49.060;10.616;2023-07-31T03:36:16;3.80;;;1.63;;
57627;SDS011;43451;49.060;10.616;2023-07-31T03:38:42;3.33;;;1.77;;
57627;SDS011;43451;49.060;10.616;2023-07-31T03:41:08;3.83;;;2.13;;
57627;SDS011;43451;49.060;10.616;2023-07-31T03:43:35;5.77;;;2.20;;
57627;SDS011;43451;49.060;10.616;2023-07-31T03:46:01;4.22;;;1.90;;
57627;SDS011;43451;49.060;10.616;2023-07-31T03:48:27;7.60;;;2.00;;
57627;SDS011;43451;49.060;10.616;2023-07-31T03:50:53;6.22;;;2.10;;
57627;SDS011;43451;49.060;10.616;2023-07-31T03:53:19;4.90;;;2.20;;
57627;SDS011;43451;49.060;10.616;2023-07-31T03:55:44;4.22;;;1.77;;
57627;SDS011;43451;49.060;10.616;2023-07-31T03:58:09;3.83;;;2.00;;
57627;SDS011;43451;49.060;10.616;2023-07-31T04:00:35;3.75;;;1.92;;
57627;SDS011;43451;49.060;10.616;2023-07-31T04:03:00;5.28;;;1.83;;
57627;SDS011;43451;49.060;10.616;2023-07-31T04:05:26;3.65;;;1.67;;
57627;SDS011;43451;49.060;10.616;2023-07-31T04:07:51;2.55;;;1.80;;
57627;SDS011;43451;49.060;10.616;2023-07-31T04:10:17;4.70;;;1.80;;
57627;SDS011;43451;49.060;10.616;2023-07-31T04:12:42;5.72;;;1.80;;
57627;SDS011;43451;49.060;10.616;2023-07-31T04:15:08;6.72;;;2.15;;
57627;SDS011;43451;49.060;10.616;2023-07-31T04:17:34;4.22;;;1.73;;
57627;SDS011;43451;49.060;10.616;2023-07-31T04:19:59;2.53;;;1.75;;
57627;SDS011;43451;49.060;10.616;2023-07-31T04:22:25;4.35;;;1.70;;
57627;SDS011;43451;49.060;10.616;2023-07-31T04:24:50;3.63;;;1.83;;
57627;SDS011;43451;49.060;10.616;2023-07-31T04:27:16;3.10;;;1.60;;
57627;SDS011;43451;49.060;10.616;2023-07-31T04:29:41;3.75;;;1.60;;
57627;SDS011;43451;49.060;10.616;2023-07-31T04:32:08;5.57;;;2.00;;
57627;SDS011;43451;49.060;10.616;2023-07-31T04:34:33;5.25;;;1.85;;
57627;SDS011;43451;49.060;10.616;2023-07-31T04:36:59;3.10;;;1.80;;
57627;SDS011;43451;49.060;10.616;2023-07-31T04:39:25;4.65;;;1.80;;
57627;SDS011;43451;49.060;10.616;2023-07-31T04:41:51;5.75;;;1.60;;
57627;SDS011;43451;49.060;10.616;2023-07-31T04:44:16;4.72;;;1.80;;
57627;SDS011;43451;49.060;10.616;2023-07-31T04:46:41;4.75;;;1.92;;
57627;SDS011;43451;49.060;10.616;2023-07-31T04:49:07;4.10;;;2.00;;
57627;SDS011;43451;49.060;10.616;2023-07-31T04:51:32;3.95;;;1.63;;
57627;SDS011;43451;49.060;10.616;2023-07-31T04:53:58;3.92;;;1.75;;
57627;SDS011;43451;49.060;10.616;2023-07-31T04:56:23;2.53;;;1.40;;
57627;SDS011;43451;49.060;10.616;2023-07-31T04:58:49;3.67;;;1.50;;
57627;SDS011;43451;49.060;10.616;2023-07-31T05:01:14;4.93;;;2.00;;
57627;SDS011;43451;49.060;10.616;2023-07-31T05:03:40;5.82;;;1.80;;
57627;SDS011;43451;49.060;10.616;2023-07-31T05:06:05;6.05;;;1.80;;
57627;SDS011;43451;49.060;10.616;2023-07-31T05:08:31;7.40;;;1.63;;
57627;SDS011;43451;49.060;10.616;2023-07-31T05:10:56;4.78;;;1.70;;
57627;SDS011;43451;49.060;10.616;2023-07-31T05:13:22;4.25;;;1.40;;
57627;SDS011;43451;49.060;10.616;2023-07-31T05:15:47;2.97;;;1.67;;
57627;SDS011;43451;49.060;10.616;2023-07-31T05:18:14;3.50;;;1.70;;
57627;SDS011;43451;49.060;10.616;2023-07-31T05:20:40;2.70;;;1.50;;
57627;SDS011;43451;49.060;10.616;2023-07-31T05:23:06;5.03;;;1.90;;
57627;SDS011;43451;49.060;10.616;2023-07-31T05:25:31;3.75;;;1.77;;
57627;SDS011;43451;49.060;10.616;2023-07-31T05:27:57;3.95;;;1.60;;
57627;SDS011;43451;49.060;10.616;2023-07-31T05:30:22;6.72;;;1.60;;
57627;SDS011;43451;49.060;10.616;2023-07-31T05:32:48;2.75;;;1.50;;
57627;SDS011;43451;49.060;10.616;2023-07-31T05:35:13;6.65;;;1.77;;
57627;SDS011;43451;49.060;10.616;2023-07-31T05:37:39;4.78;;;1.63;;
57627;SDS011;43451;49.060;10.616;2023-07-31T05:40:04;2.15;;;1.70;;
57627;SDS011;43451;49.060;10.616;2023-07-31T05:42:30;6.82;;;1.70;;
57627;SDS011;43451;49.060;10.616;2023-07-31T05:44:56;4.93;;;1.70;;
57627;SDS011;43451;49.060;10.616;2023-07-31T05:47:21;4.45;;;1.70;;
57627;SDS011;43451;49.060;10.616;2023-07-31T05:49:47;3.65;;;1.60;;
57627;SDS011;43451;49.060;10.616;2023-07-31T05:52:14;5.35;;;1.58;;
57627;SDS011;43451;49.060;10.616;2023-07-31T05:54:39;4.57;;;1.55;;
57627;SDS011;43451;49.060;10.616;2023-07-31T05:57:05;3.35;;;1.70;;
57627;SDS011;43451;49.060;10.616;2023-07-31T05:59:30;6.18;;;1.77;;
57627;SDS011;43451;49.060;10.616;2023-07-31T06:01:58;4.80;;;2.25;;
57627;SDS011;43451;49.060;10.616;2023-07-31T06:04:23;3.08;;;1.63;;
57627;SDS011;43451;49.060;10.616;2023-07-31T06:06:50;4.25;;;1.85;;
57627;SDS011;43451;49.060;10.616;2023-07-31T06:09:16;4.03;;;1.55;;
57627;SDS011;43451;49.060;10.616;2023-07-31T06:11:41;3.95;;;1.63;;
57627;SDS011;43451;49.060;10.616;2023-07-31T06:14:07;3.83;;;1.48;;
57627;SDS011;43451;49.060;10.616;2023-07-31T06:16:32;3.13;;;1.70;;
57627;SDS011;43451;49.060;10.616;2023-07-31T06:18:59;3.13;;;1.60;;
57627;SDS011;43451;49.060;10.616;2023-07-31T06:21:24;2.33;;;1.52;;
57627;SDS011;43451;49.060;10.616;2023-07-31T06:23:50;4.53;;;1.80;;
57627;SDS011;43451;49.060;10.616;2023-07-31T06:26:15;4.95;;;1.55;;
57627;SDS011;43451;49.060;10.616;2023-07-31T06:28:41;3.92;;;1.77;;
57627;SDS011;43451;49.060;10.616;2023-07-31T06:31:06;3.03;;;1.42;;
57627;SDS011;43451;49.060;10.616;2023-07-31T06:33:32;3.22;;;1.50;;
57627;SDS011;43451;49.060;10.616;2023-07-31T06:35:58;3.67;;;1.75;;
57627;SDS011;43451;49.060;10.616;2023-07-31T06:38:24;4.07;;;1.70;;
57627;SDS011;43451;49.060;10.616;2023-07-31T06:40:50;2.65;;;1.60;;
57627;SDS011;43451;49.060;10.616;2023-07-31T06:43:16;6.05;;;1.75;;
57627;SDS011;43451;49.060;10.616;2023-07-31T06:45:41;6.70;;;1.63;;
57627;SDS011;43451;49.060;10.616;2023-07-31T06:48:07;5.18;;;1.60;;
57627;SDS011;43451;49.060;10.616;2023-07-31T06:50:32;4.43;;;1.50;;
57627;SDS011;43451;49.060;10.616;2023-07-31T06:52:58;2.75;;;1.60;;
57627;SDS011;43451;49.060;10.616;2023-07-31T06:55:25;4.82;;;1.70;;
57627;SDS011;43451;49.060;10.616;2023-07-31T06:57:53;6.53;;;1.70;;
57627;SDS011;43451;49.060;10.616;2023-07-31T07:00:20;3.45;;;1.60;;
57627;SDS011;43451;49.060;10.616;2023-07-31T07:02:49;3.13;;;1.58;;
57627;SDS011;43451;49.060;10.616;2023-07-31T07:05:14;3.77;;;1.80;;
57627;SDS011;43451;49.060;10.616;2023-07-31T07:07:41;4.40;;;1.63;;
57627;SDS011;43451;49.060;10.616;2023-07-31T07:10:07;6.40;;;1.67;;
57627;SDS011;43451;49.060;10.616;2023-07-31T07:12:33;3.75;;;1.60;;
57627;SDS011;43451;49.060;10.616;2023-07-31T07:15:00;5.70;;;1.60;;
57627;SDS011;43451;49.060;10.616;2023-07-31T07:17:26;4.65;;;1.70;;
57627;SDS011;43451;49.060;10.616;2023-07-31T07:19:53;7.20;;;1.65;;
57627;SDS011;43451;49.060;10.616;2023-07-31T07:22:18;5.53;;;1.70;;
57627;SDS011;43451;49.060;10.616;2023-07-31T07:24:44;3.45;;;1.67;;
57627;SDS011;43451;49.060;10.616;2023-07-31T07:27:09;4.97;;;1.88;;
57627;SDS011;43451;49.060;10.616;2023-07-31T07:29:35;3.13;;;1.40;;
57627;SDS011;43451;49.060;10.616;2023-07-31T07:32:00;1.98;;;1.33;;
57627;SDS011;43451;49.060;10.616;2023-07-31T07:34:26;3.95;;;1.60;;
57627;SDS011;43451;49.060;10.616;2023-07-31T07:36:53;4.20;;;1.60;;
57627;SDS011;43451;49.060;10.616;2023-07-31T07:39:19;2.63;;;1.52;;
57627;SDS011;43451;49.060;10.616;2023-07-31T07:41:45;6.10;;;1.73;;
57627;SDS011;43451;49.060;10.616;2023-07-31T07:44:11;3.50;;;1.50;;
57627;SDS011;43451;49.060;10.616;2023-07-31T07:46:38;5.00;;;1.73;;
57627;SDS011;43451;49.060;10.616;2023-07-31T07:49:03;6.90;;;1.85;;
57627;SDS011;43451;49.060;10.616;2023-07-31T07:51:29;3.58;;;1.90;;
57627;SDS011;43451;49.060;10.616;2023-07-31T07:53:56;5.88;;;2.10;;
57627;SDS011;43451;49.060;10.616;2023-07-31T07:56:23;5.72;;;1.90;;
57627;SDS011;43451;49.060;10.616;2023-07-31T07:58:49;6.10;;;1.92;;
57627;SDS011;43451;49.060;10.616;2023-07-31T12:00:16;4.25;;;2.55;;
57627;SDS011;43451;49.060;10.616;2023-07-31T12:02:43;4.47;;;2.30;;
57627;SDS011;43451;49.060;10.616;2023-07-31T12:05:12;5.38;;;2.45;;
57627;SDS011;43451;49.060;10.616;2023-07-31T12:07:45;3.70;;;2.22;;
57627;SDS011;43451;49.060;10.616;2023-07-31T12:10:21;4.13;;;2.15;;
57627;SDS011;43451;49.060;10.616;2023-07-31T12:13:02;4.53;;;2.22;;
57627;SDS011;43451;49.060;10.616;2023-07-31T12:15:34;5.33;;;2.30;;
57627;SDS011;43451;49.060;10.616;2023-07-31T12:18:05;4.88;;;2.20;;
57627;SDS011;43451;49.060;10.616;2023-07-31T12:20:35;4.15;;;2.45;;
57627;SDS011;43451;49.060;10.616;2023-07-31T12:23:04;6.45;;;2.20;;
57627;SDS011;43451;49.060;10.616;2023-07-31T12:25:31;6.50;;;2.30;;
57627;SDS011;43451;49.060;10.616;2023-07-31T12:27:57;8.32;;;2.33;;
57627;SDS011;43451;49.060;10.616;2023-07-31T12:30:31;5.88;;;2.25;;
57627;SDS011;43451;49.060;10.616;2023-07-31T12:33:03;9.30;;;2.40;;
57627;SDS011;43451;49.060;10.616;2023-07-31T12:35:36;4.25;;;2.30;;
57627;SDS011;43451;49.060;10.616;2023-07-31T12:38:02;5.80;;;2.42;;
57627;SDS011;43451;49.060;10.616;2023-07-31T12:40:28;4.72;;;2.17;;
57627;SDS011;43451;49.060;10.616;2023-07-31T12:42:54;4.95;;;2.17;;
57627;SDS011;43451;49.060;10.616;2023-07-31T12:45:19;7.68;;;2.33;;
57627;SDS011;43451;49.060;10.616;2023-07-31T12:47:46;3.63;;;2.23;;
57627;SDS011;43451;49.060;10.616;2023-07-31T12:50:12;4.10;;;2.10;;
57627;SDS011;43451;49.060;10.616;2023-07-31T12:52:37;6.70;;;2.00;;
57627;SDS011;43451;49.060;10.616;2023-07-31T12:55:03;7.78;;;2.60;;
57627;SDS011;43451;49.060;10.616;2023-07-31T12:57:29;10.32;;;2.10;;
57627;SDS011;43451;49.060;10.616;2023-07-31T12:59:55;12.27;;;2.20;;
57627;SDS011;43451;49.060;10.616;2023-07-31T13:02:21;17.10;;;2.70;;
57627;SDS011;43451;49.060;10.616;2023-07-31T13:04:46;8.23;;;2.38;;
57627;SDS011;43451;49.060;10.616;2023-07-31T13:07:12;6.45;;;2.60;;
57627;SDS011;43451;49.060;10.616;2023-07-31T13:09:38;4.55;;;2.17;;
57627;SDS011;43451;49.060;10.616;2023-07-31T13:12:03;4.72;;;2.40;;
57627;SDS011;43451;49.060;10.616;2023-07-31T13:14:29;6.18;;;2.60;;
57627;SDS011;43451;49.060;10.616;2023-07-31T13:16:54;5.70;;;2.35;;
57627;SDS011;43451;49.060;10.616;2023-07-31T13:19:20;6.88;;;2.72;;
57627;SDS011;43451;49.060;10.616;2023-07-31T13:21:46;4.47;;;2.55;;
57627;SDS011;43451;49.060;10.616;2023-07-31T13:24:11;6.40;;;2.50;;
57627;SDS011;43451;49.060;10.616;2023-07-31T13:26:37;6.25;;;2.03;;
57627;SDS011;43451;49.060;10.616;2023-07-31T13:29:02;3.47;;;2.20;;
57627;SDS011;43451;49.060;10.616;2023-07-31T13:31:28;6.03;;;2.50;;
57627;SDS011;43451;49.060;10.616;2023-07-31T13:33:53;5.50;;;2.30;;
57627;SDS011;43451;49.060;10.616;2023-07-31T13:36:19;4.07;;;2.25;;
57627;SDS011;43451;49.060;10.616;2023-07-31T13:38:44;5.78;;;2.28;;
57627;SDS011;43451;49.060;10.616;2023-07-31T13:41:10;5.07;;;2.38;;
57627;SDS011;43451;49.060;10.616;2023-07-31T13:43:35;5.53;;;2.28;;
57627;SDS011;43451;49.060;10.616;2023-07-31T13:46:01;4.75;;;2.20;;
57627;SDS011;43451;49.060;10.616;2023-07-31T13:48:32;3.70;;;2.10;;
57627;SDS011;43451;49.060;10.616;2023-07-31T13:50:59;4.20;;;2.15;;
57627;SDS011;43451;49.060;10.616;2023-07-31T13:53:25;4.38;;;2.10;;
57627;SDS011;43451;49.060;10.616;2023-07-31T13:55:50;6.63;;;2.40;;
57627;SDS011;43451;49.060;10.616;2023-07-31T13:58:16;6.63;;;2.42;;
57627;SDS011;43451;49.060;10.616;2023-07-31T14:00:42;11.43;;;2.60;;
57627;SDS011;43451;49.060;10.616;2023-07-31T14:03:08;5.35;;;2.40;;
57627;SDS011;43451;49.060;10.616;2023-07-31T14:05:33;6.43;;;2.38;;
57627;SDS011;43451;49.060;10.616;2023-07-31T14:07:59;4.88;;;2.30;;
57627;SDS011;43451;49.060;10.616;2023-07-31T14:10:25;7.82;;;2.40;;
57627;SDS011;43451;49.060;10.616;2023-07-31T14:12:50;4.22;;;2.20;;
57627;SDS011;43451;49.060;10.616;2023-07-31T14:15:16;4.68;;;2.53;;
57627;SDS011;43451;49.060;10.616;2023-07-31T14:17:41;6.32;;;2.50;;
57627;SDS011;43451;49.060;10.616;2023-07-31T14:20:07;11.38;;;2.63;;
57627;SDS011;43451;49.060;10.616;2023-07-31T14:22:33;6.75;;;2.58;;
57627;SDS011;43451;49.060;10.616;2023-07-31T14:24:59;4.68;;;2.30;;
57627;SDS011;43451;49.060;10.616;2023-07-31T14:27:25;5.20;;;2.40;;
57627;SDS011;43451;49.060;10.616;2023-07-31T14:29:50;4.80;;;2.70;;
57627;SDS011;43451;49.060;10.616;2023-07-31T14:32:16;5.00;;;2.65;;
57627;SDS011;43451;49.060;10.616;2023-07-31T14:34:41;4.80;;;2.55;;
57627;SDS011;43451;49.060;10.616;2023-07-31T14:37:07;4.78;;;2.60;;
57627;SDS011;43451;49.060;10.616;2023-07-31T14:39:32;5.53;;;2.40;;
57627;SDS011;43451;49.060;10.616;2023-07-31T14:41:58;5.05;;;2.50;;
57627;SDS011;43451;49.060;10.616;2023-07-31T14:44:23;4.13;;;2.72;;
57627;SDS011;43451;49.060;10.616;2023-07-31T14:46:49;4.40;;;2.60;;
57627;SDS011;43451;49.060;10.616;2023-07-31T14:49:15;6.65;;;3.00;;
57627;SDS011;43451;49.060;10.616;2023-07-31T14:51:45;3.85;;;2.50;;
57627;SDS011;43451;49.060;10.616;2023-07-31T14:54:11;5.88;;;2.45;;
57627;SDS011;43451;49.060;10.616;2023-07-31T14:56:36;15.82;;;3.13;;
57627;SDS011;43451;49.060;10.616;2023-07-31T14:59:01;3.88;;;2.45;;
57627;SDS011;43451;49.060;10.616;2023-07-31T15:01:27;5.47;;;2.50;;
57627;SDS011;43451;49.060;10.616;2023-07-31T15:03:53;5.00;;;2.42;;
57627;SDS011;43451;49.060;10.616;2023-07-31T15:06:18;7.13;;;2.80;;
57627;SDS011;43451;49.060;10.616;2023-07-31T15:08:43;15.73;;;2.95;;
57627;SDS011;43451;49.060;10.616;2023-07-31T15:11:09;4.10;;;2.47;;
57627;SDS011;43451;49.060;10.616;2023-07-31T15:13:36;5.25;;;2.45;;
57627;SDS011;43451;49.060;10.616;2023-07-31T15:16:01;5.28;;;2.47;;
57627;SDS011;43451;49.060;10.616;2023-07-31T15:18:27;4.68;;;2.50;;
57627;SDS011;43451;49.060;10.616;2023-07-31T15:20:53;5.60;;;2.35;;
57627;SDS011;43451;49.060;10.616;2023-07-31T15:23:18;5.13;;;2.70;;
57627;SDS011;43451;49.060;10.616;2023-07-31T15:25:44;4.93;;;2.30;;
57627;SDS011;43451;49.060;10.616;2023-07-31T15:28:09;5.40;;;2.63;;
57627;SDS011;43451;49.060;10.616;2023-07-31T15:30:36;5.00;;;2.40;;
57627;SDS011;43451;49.060;10.616;2023-07-31T15:33:02;5.88;;;2.60;;
57627;SDS011;43451;49.060;10.616;2023-07-31T15:35:28;5.57;;;2.50;;
57627;SDS011;43451;49.060;10.616;2023-07-31T15:37:54;6.35;;;2.70;;
57627;SDS011;43451;49.060;10.616;2023-07-31T15:40:19;6.10;;;2.30;;
57627;SDS011;43451;49.060;10.616;2023-07-31T15:42:45;12.65;;;2.97;;
57627;SDS011;43451;49.060;10.616;2023-07-31T15:45:11;5.57;;;2.40;;
57627;SDS011;43451;49.060;10.616;2023-07-31T15:47:36;8.93;;;2.50;;
57627;SDS011;43451;49.060;10.616;2023-07-31T15:50:02;8.43;;;2.70;;
57627;SDS011;43451;49.060;10.616;2023-07-31T15:52:28;4.70;;;2.35;;
57627;SDS011;43451;49.060;10.616;2023-07-31T15:54:54;5.72;;;2.70;;
57627;SDS011;43451;49.060;10.616;2023-07-31T15:57:20;4.50;;;2.40;;
57627;SDS011;43451;49.060;10.616;2023-07-31T15:59:45;4.43;;;2.40;;
57627;SDS011;43451;49.060;10.616;2023-07-31T16:02:11;4.45;;;2.28;;
57627;SDS011;43451;49.060;10.616;2023-07-31T16:04:37;5.28;;;2.50;;
57627;SDS011;43451;49.060;10.616;2023-07-31T16:07:02;5.50;;;2.42;;
57627;SDS011;43451;49.060;10.616;2023-07-31T16:09:28;9.00;;;2.63;;
57627;SDS011;43451;49.060;10.616;2023-07-31T16:11:54;6.80;;;2.28;;
57627;SDS011;43451;49.060;10.616;2023-07-31T16:14:19;5.35;;;2.38;;
57627;SDS011;43451;49.060;10.616;2023-07-31T16:16:45;3.90;;;2.30;;
57627;SDS011;43451;49.060;10.616;2023-07-31T16:19:12;4.78;;;2.70;;
57627;SDS011;43451;49.060;10.616;2023-07-31T16:21:37;6.97;;;2.80;;
57627;SDS011;43451;49.060;10.616;2023-07-31T16:24:03;5.13;;;2.35;;
57627;SDS011;43451;49.060;10.616;2023-07-31T16:26:28;3.55;;;2.38;;
57627;SDS011;43451;49.060;10.616;2023-07-31T16:28:56;4.32;;;2.22;;
57627;SDS011;43451;49.060;10.616;2023-07-31T16:31:21;4.05;;;2.30;;
57627;SDS011;43451;49.060;10.616;2023-07-31T16:33:47;4.57;;;2.33;;
57627;SDS011;43451;49.060;10.616;2023-07-31T16:36:12;5.70;;;2.45;;
57627;SDS011;43451;49.060;10.616;2023-07-31T16:38:38;3.65;;;2.40;;
57627;SDS011;43451;49.060;10.616;2023-07-31T16:41:05;6.35;;;2.50;;
57627;SDS011;43451;49.060;10.616;2023-07-31T16:43:30;4.32;;;2.58;;
57627;SDS011;43451;49.060;10.616;2023-07-31T16:45:56;4.70;;;2.53;;
57627;SDS011;43451;49.060;10.616;2023-07-31T16:48:22;6.20;;;2.53;;
57627;SDS011;43451;49.060;10.616;2023-07-31T16:50:47;4.90;;;2.38;;
57627;SDS011;43451;49.060;10.616;2023-07-31T16:53:13;5.50;;;2.75;;
57627;SDS011;43451;49.060;10.616;2023-07-31T16:55:38;5.25;;;2.28;;
57627;SDS011;43451;49.060;10.616;2023-07-31T16:58:04;8.50;;;2.75;;
57627;SDS011;43451;49.060;10.616;2023-07-31T17:00:29;3.95;;;2.40;;
57627;SDS011;43451;49.060;10.616;2023-07-31T17:02:55;5.38;;;2.20;;
57627;SDS011;43451;49.060;10.616;2023-07-31T17:05:21;6.50;;;2.60;;
57627;SDS011;43451;49.060;10.616;2023-07-31T17:07:47;11.93;;;3.00;;
57627;SDS011;43451;49.060;10.616;2023-07-31T17:10:13;4.95;;;2.42;;
57627;SDS011;43451;49.060;10.616;2023-07-31T17:12:39;4.28;;;2.50;;
57627;SDS011;43451;49.060;10.616;2023-07-31T17:15:05;12.73;;;3.20;;
57627;SDS011;43451;49.060;10.616;2023-07-31T17:17:31;4.30;;;2.22;;
57627;SDS011;43451;49.060;10.616;2023-07-31T17:19:57;5.93;;;2.40;;
57627;SDS011;43451;49.060;10.616;2023-07-31T17:22:22;14.77;;;2.42;;
57627;SDS011;43451;49.060;10.616;2023-07-31T17:24:48;11.40;;;2.80;;
57627;SDS011;43451;49.060;10.616;2023-07-31T17:27:13;4.43;;;2.20;;
57627;SDS011;43451;49.060;10.616;2023-07-31T17:29:39;5.00;;;2.30;;
57627;SDS011;43451;49.060;10.616;2023-07-31T17:32:05;7.72;;;2.53;;
57627;SDS011;43451;49.060;10.616;2023-07-31T17:34:31;4.35;;;2.40;;
57627;SDS011;43451;49.060;10.616;2023-07-31T17:36:57;4.10;;;2.00;;
57627;SDS011;43451;49.060;10.616;2023-07-31T17:39:23;4.22;;;2.42;;
57627;SDS011;43451;49.060;10.616;2023-07-31T17:41:49;16.60;;;2.75;;
57627;SDS011;43451;49.060;10.616;2023-07-31T17:44:15;8.38;;;2.78;;
57627;SDS011;43451;49.060;10.616;2023-07-31T17:46:40;4.03;;;2.33;;
57627;SDS011;43451;49.060;10.616;2023-07-31T17:49:06;4.70;;;2.40;;
57627;SDS011;43451;49.060;10.616;2023-07-31T17:51:32;7.22;;;2.97;;
57627;SDS011;43451;49.060;10.616;2023-07-31T17:53:59;6.47;;;2.70;;
57627;SDS011;43451;49.060;10.616;2023-07-31T17:56:25;5.57;;;2.50;;
57627;SDS011;43451;49.060;10.616;2023-07-31T17:58:50;5.70;;;2.65;;
57627;SDS011;43451;49.060;10.616;2023-07-31T18:01:16;6.68;;;2.45;;
57627;SDS011;43451;49.060;10.616;2023-07-31T18:03:41;8.55;;;2.45;;
57627;SDS011;43451;49.060;10.616;2023-07-31T18:06:07;7.55;;;2.38;;
57627;SDS011;43451;49.060;10.616;2023-07-31T18:08:32;6.50;;;2.55;;
57627;SDS011;43451;49.060;10.616;2023-07-31T18:10:58;5.38;;;2.20;;
57627;SDS011;43451;49.060;10.616;2023-07-31T18:13:24;4.60;;;2.83;;
57627;SDS011;43451;49.060;10.616;2023-07-31T18:15:49;16.95;;;2.78;;
57627;SDS011;43451;49.060;10.616;2023-07-31T18:18:15;3.92;;;2.33;;
57627;SDS011;43451;49.060;10.616;2023-07-31T18:20:40;10.45;;;2.60;;
57627;SDS011;43451;49.060;10.616;2023-07-31T18:23:06;7.07;;;2.70;;
57627;SDS011;43451;49.060;10.616;2023-07-31T18:25:32;5.25;;;2.65;;
57627;SDS011;43451;49.060;10.616;2023-07-31T18:27:57;5.25;;;3.88;;
57627;SDS011;43451;49.060;10.616;2023-07-31T18:30:23;3.85;;;2.40;;
57627;SDS011;43451;49.060;10.616;2023-07-31T18:32:49;4.70;;;2.58;;
57627;SDS011;43451;49.060;10.616;2023-07-31T18:35:14;6.38;;;2.83;;
57627;SDS011;43451;49.060;10.616;2023-07-31T18:37:42;8.27;;;2.80;;
57627;SDS011;43451;49.060;10.616;2023-07-31T18:40:07;3.72;;;2.63;;
57627;SDS011;43451;49.060;10.616;2023-07-31T18:42:34;4.20;;;2.40;;
57627;SDS011;43451;49.060;10.616;2023-07-31T18:44:59;5.57;;;2.45;;
57627;SDS011;43451;49.060;10.616;2023-07-31T18:47:25;5.47;;;2.40;;
57627;SDS011;43451;49.060;10.616;2023-07-31T18:49:50;3.83;;;2.22;;
57627;SDS011;43451;49.060;10.616;2023-07-31T18:52:16;15.85;;;2.90;;
57627;SDS011;43451;49.060;10.616;2023-07-31T18:54:42;7.20;;;2.78;;
57627;SDS011;43451;49.060;10.616;2023-07-31T18:57:07;5.40;;;2.60;;
57627;SDS011;43451;49.060;10.616;2023-07-31T18:59:33;5.07;;;2.60;;
57627;SDS011;43451;49.060;10.616;2023-07-31T19:01:59;10.07;;;2.80;;
57627;SDS011;43451;49.060;10.616;2023-07-31T19:04:24;7.07;;;2.80;;
57627;SDS011;43451;49.060;10.616;2023-07-31T19:06:50;5.10;;;2.40;;
57627;SDS011;43451;49.060;10.616;2023-07-31T19:09:26;11.30;;;3.05;;
57627;SDS011;43451;49.060;10.616;2023-07-31T19:11:57;5.20;;;2.65;;
57627;SDS011;43451;49.060;10.616;2023-07-31T19:14:23;5.03;;;2.70;;
57627;SDS011;43451;49.060;10.616;2023-07-31T19:16:49;4.82;;;2.63;;
57627;SDS011;43451;49.060;10.616;2023-07-31T19:19:15;7.90;;;2.78;;
57627;SDS011;43451;49.060;10.616;2023-07-31T19:21:40;4.85;;;2.65;;